Terminal Aerodrome Forecast
Issued by NWS

Home | Current Version | Previous Version | Text Only | Print | Product List | Glossary On
Versions: 1 2 3 4 5 6 7 8 9 10 11 12 13 14 15 16 17 18 19 20 21 22 23 24 25 26 27 28
000
FTUS43 KMKX 201148
TAFUES
TAF
KUES 201148Z 2012/2112 13005KT 2SM BR BKN003
     FM201400 15009KT P6SM SCT050
     FM202300 18009KT P6SM VCTS SCT060CB
     FM210200 19005KT P6SM VCTS BKN050CB
     FM210600 00000KT P6SM BKN050=

USA.gov is the U.S. government's official web portal to all federal, state and local government web resources and services.